| time (UTC) | temp C | wind direction | speed KPH | gust KPH | rain 1hr cm | rain 24hr cm | rain mn cm | humidity % | barometer mb |
| 20260507141826 | 20 | 0 | 0.0 | 0.0 | 0.00 | 0.00 | 0.00 | 36 | 993.9 |
| 20260507140047 | 18 | 0 | 0.0 | 0.0 | 0.00 | 0.00 | 0.00 | 39 | 993.8 |
| 20260507135426 | 17 | 0 | 0.0 | 0.0 | 0.00 | 0.00 | 0.00 | 41 | 993.8 |
| 20260507134526 | 17 | 0 | 0.0 | 0.0 | 0.00 | 0.00 | 0.00 | 42 | 993.7 |
| 20260507130047 | 16 | 0 | 0.0 | 0.0 | 0.00 | 0.00 | 0.00 | 39 | 993.3 |
| 20260507125426 | 16 | 0 | 0.0 | 0.0 | 0.00 | 0.00 | 0.00 | 38 | 993.4 |
| 20260507124526 | 16 | 0 | 0.0 | 0.0 | 0.00 | 0.00 | 0.00 | 38 | 993.3 |
| 20260507123626 | 17 | 40 | 0.0 | 8.0 | 0.00 | 0.00 | 0.00 | 37 | 993.2 |
| 20260507121826 | 17 | 42 | 0.0 | 6.4 | 0.00 | 0.00 | 0.00 | 37 | 993.2 |
| 20260507120027 | 17 | 42 | 0.0 | 6.4 | 0.00 | 0.00 | 0.00 | 36 | 993.2 |
| 20260507113626 | 17 | 40 | 3.2 | 9.7 | 0.00 | 0.00 | 0.00 | 37 | 993.4 |
| 20260507112726 | 17 | 39 | 3.2 | 11.3 | 0.00 | 0.00 | 0.00 | 38 | 993.4 |
| 20260507111826 | 17 | 39 | 3.2 | 9.7 | 0.00 | 0.00 | 0.00 | 39 | 993.4 |
| 20260507110047 | 16 | 0 | 0.0 | 0.0 | 0.00 | 0.00 | 0.00 | 41 | 993.6 |
| 20260507103626 | 16 | 0 | 0.0 | 0.0 | 0.00 | 0.00 | 0.00 | 42 | 993.9 |
| 20260507100947 | 16 | 0 | 0.0 | 0.0 | 0.00 | 0.00 | 0.00 | 42 | 993.9 |
| 20260507100026 | 16 | 0 | 0.0 | 0.0 | 0.00 | 0.00 | 0.00 | 42 | 993.9 |
| 20260507094546 | 16 | 0 | 0.0 | 0.0 | 0.00 | 0.00 | 0.00 | 42 | 993.8 |
| 20260507093625 | 16 | 0 | 0.0 | 0.0 | 0.00 | 0.00 | 0.00 | 41 | 993.9 |
| 20260507092747 | 16 | 0 | 0.0 | 0.0 | 0.00 | 0.00 | 0.00 | 41 | 993.9 |
| 20260507091825 | 16 | 0 | 0.0 | 0.0 | 0.00 | 0.00 | 0.00 | 41 | 993.8 |
| 20260507090046 | 16 | 0 | 0.0 | 0.0 | 0.00 | 0.00 | 0.00 | 40 | 993.7 |
| 20260507084526 | 16 | 0 | 0.0 | 0.0 | 0.00 | 0.00 | 0.00 | 39 | 993.7 |
| 20260507081825 | 17 | 0 | 0.0 | 0.0 | 0.00 | 0.00 | 0.00 | 38 | 994.0 |
| 20260507080026 | 17 | 0 | 0.0 | 0.0 | 0.00 | 0.00 | 0.00 | 38 | 994.0 |
| 20260507074525 | 17 | 0 | 0.0 | 0.0 | 0.00 | 0.00 | 0.00 | 37 | 994.0 |
| 20260507064525 | 17 | 0 | 0.0 | 0.0 | 0.00 | 0.00 | 0.00 | 37 | 994.0 |
| 20260507063625 | 17 | 0 | 0.0 | 0.0 | 0.00 | 0.00 | 0.00 | 36 | 994.0 |
| 20260507062725 | 17 | 0 | 0.0 | 0.0 | 0.00 | 0.00 | 0.00 | 36 | 993.9 |
| 20260507061825 | 18 | 0 | 0.0 | 0.0 | 0.00 | 0.00 | 0.00 | 36 | 993.9 |
| 20260507054525 | 18 | 0 | 0.0 | 0.0 | 0.00 | 0.00 | 0.00 | 35 | 993.9 |
| 20260507052725 | 18 | 0 | 0.0 | 0.0 | 0.00 | 0.00 | 0.00 | 34 | 994.0 |
| 20260507050026 | 20 | 0 | 0.0 | 0.0 | 0.00 | 0.00 | 0.00 | 34 | 993.9 |
| 20260507044525 | 20 | 0 | 0.0 | 0.0 | 0.00 | 0.00 | 0.00 | 32 | 993.8 |
| 20260507043625 | 20 | 0 | 0.0 | 0.0 | 0.00 | 0.00 | 0.00 | 32 | 993.7 |
| 20260507040925 | 21 | 0 | 0.0 | 0.0 | 0.00 | 0.00 | 0.00 | 31 | 993.5 |
| 20260507033625 | 23 | 0 | 0.0 | 0.0 | 0.00 | 0.00 | 0.00 | 28 | 993.1 |
| 20260507031825 | 24 | 0 | 0.0 | 0.0 | 0.00 | 0.00 | 0.00 | 27 | 992.7 |
| 20260507030925 | 25 | 0 | 0.0 | 0.0 | 0.00 | 0.00 | 0.00 | 27 | 992.7 |
| 20260507025425 | 25 | 0 | 0.0 | 0.0 | 0.00 | 0.00 | 0.00 | 26 | 992.3 |
| 20260507022725 | 26 | 40 | 0.0 | 8.0 | 0.00 | 0.00 | 0.00 | 25 | 992.2 |
| 20260507020055 | 26 | 36 | 3.2 | 9.7 | 0.00 | 0.00 | 0.00 | 24 | 992.0 |
| 20260507015425 | 26 | 36 | 1.6 | 11.3 | 0.00 | 0.00 | 0.00 | 25 | 992.0 |
| 20260507014525 | 27 | 35 | 0.0 | 6.4 | 0.00 | 0.00 | 0.00 | 25 | 992.0 |
| 20260507012725 | 27 | 38 | 0.0 | 8.0 | 0.00 | 0.00 | 0.00 | 24 | 991.8 |
| 20260507004525 | 28 | 36 | 0.0 | 9.7 | 0.00 | 0.00 | 0.00 | 23 | 991.6 |
| 20260507003625 | 28 | 40 | 1.6 | 11.3 | 0.00 | 0.00 | 0.00 | 24 | 991.7 |
| 20260507002725 | 27 | 38 | 0.0 | 11.3 | 0.00 | 0.00 | 0.00 | 24 | 991.6 |
| 20260506234525 | 27 | 39 | 0.0 | 8.0 | 0.00 | 0.00 | 0.00 | 24 | 991.8 |
| 20260506233624 | 27 | 38 | 0.0 | 9.7 | 0.00 | 0.00 | 0.00 | 24 | 991.8 |
| 20260506231846 | 27 | 0 | 0.0 | 0.0 | 0.00 | 0.00 | 0.00 | 24 | 992.0 |
| 20260506230925 | 27 | 0 | 0.0 | 0.0 | 0.00 | 0.00 | 0.00 | 24 | 992.2 |
| 20260506230028 | 27 | 25 | 1.6 | 12.9 | 0.00 | 0.00 | 0.00 | 24 | 992.3 |
| 20260506223646 | 28 | 33 | 3.2 | 14.5 | 0.00 | 0.00 | 0.00 | 23 | 992.6 |
| 20260506213624 | 30 | 184 | 3.2 | 16.1 | 0.00 | 0.00 | 0.00 | 23 | 993.5 |
| 20260506210025 | 28 | 25 | 3.2 | 12.9 | 0.00 | 0.00 | 0.00 | 23 | 994.2 |
| 20260506202724 | 28 | 112 | 1.6 | 17.7 | 0.00 | 0.00 | 0.00 | 24 | 994.8 |
| 20260506201824 | 28 | 56 | 1.6 | 9.7 | 0.00 | 0.00 | 0.00 | 23 | 994.9 |
| 20260506200025 | 28 | 170 | 4.8 | 14.5 | 0.00 | 0.00 | 0.00 | 24 | 995.0 |
| 20260506195424 | 28 | 112 | 6.4 | 16.1 | 0.00 | 0.00 | 0.00 | 24 | 995.1 |
| 20260506194524 | 27 | 52 | 3.2 | 14.5 | 0.00 | 0.00 | 0.00 | 25 | 995.2 |
| 20260506193624 | 27 | 45 | 3.2 | 14.5 | 0.00 | 0.00 | 0.00 | 25 | 995.3 |
| 20260506192724 | 27 | 37 | 3.2 | 16.1 | 0.00 | 0.00 | 0.00 | 25 | 995.3 |
| 20260506191824 | 27 | 22 | 3.2 | 17.7 | 0.00 | 0.00 | 0.00 | 25 | 995.5 |
| 20260506190924 | 27 | 10 | 0.0 | 9.7 | 0.00 | 0.00 | 0.00 | 26 | 995.6 |
| 20260506190024 | 26 | 1 | 1.6 | 11.3 | 0.00 | 0.00 | 0.00 | 26 | 995.7 |
| 20260506184545 | 26 | 353 | 6.4 | 14.5 | 0.00 | 0.00 | 0.00 | 27 | 995.8 |
| 20260506180924 | 26 | 66 | 0.0 | 4.8 | 0.00 | 0.00 | 0.00 | 27 | 996.3 |
| 20260506180045 | 26 | 55 | 1.6 | 11.3 | 0.00 | 0.00 | 0.00 | 28 | 996.4 |
| 20260506174545 | 26 | 52 | 0.0 | 9.7 | 0.00 | 0.00 | 0.00 | 29 | 996.4 |
| 20260506172724 | 25 | 51 | 1.6 | 11.3 | 0.00 | 0.00 | 0.00 | 29 | 996.6 |
| 20260506171824 | 25 | 55 | 1.6 | 9.7 | 0.00 | 0.00 | 0.00 | 30 | 996.5 |
| 20260506170024 | 24 | 54 | 1.6 | 11.3 | 0.00 | 0.00 | 0.00 | 31 | 996.5 |
| 20260506164524 | 23 | 51 | 3.2 | 14.5 | 0.00 | 0.00 | 0.00 | 32 | 996.5 |
| 20260506163624 | 23 | 58 | 1.6 | 9.7 | 0.00 | 0.00 | 0.00 | 32 | 996.5 |
| 20260506162745 | 23 | 57 | 1.6 | 11.3 | 0.00 | 0.00 | 0.00 | 32 | 996.4 |
| 20260506161824 | 23 | 55 | 1.6 | 9.7 | 0.00 | 0.00 | 0.00 | 33 | 996.3 |
| 20260506160924 | 23 | 56 | 0.0 | 8.0 | 0.00 | 0.00 | 0.00 | 33 | 996.3 |
| 20260506160024 | 23 | 0 | 0.0 | 0.0 | 0.00 | 0.00 | 0.00 | 33 | 996.2 |
| 20260506150024 | 20 | 0 | 0.0 | 0.0 | 0.00 | 0.00 | 0.00 | 38 | 996.5 |
| 20260506144524 | 19 | 56 | 3.2 | 9.7 | 0.00 | 0.00 | 0.00 | 40 | 996.6 |
| 20260506143624 | 18 | 55 | 1.6 | 8.0 | 0.00 | 0.00 | 0.00 | 42 | 996.5 |